sensor_id;sensor_type;location;lat;lon;timestamp;P1;P2;P0
55076;PMS7003;40971;44.702;11.030;2023-07-24T00:09:49;31.00;31.00;18.00
55076;PMS7003;40971;44.702;11.030;2023-07-24T00:19:51;31.33;28.67;18.00
55076;PMS7003;40971;44.702;11.030;2023-07-24T00:29:53;32.33;30.67;18.33
55076;PMS7003;40971;44.702;11.030;2023-07-24T00:39:55;29.00;28.33;19.33
55076;PMS7003;40971;44.702;11.030;2023-07-24T00:49:57;28.00;27.33;17.67
55076;PMS7003;40971;44.702;11.030;2023-07-24T01:00:01;32.38;31.75;21.00
55076;PMS7003;40971;44.702;11.030;2023-07-24T01:10:06;28.00;27.67;17.00
55076;PMS7003;40971;44.702;11.030;2023-07-24T01:20:09;33.00;31.00;19.33
55076;PMS7003;40971;44.702;11.030;2023-07-24T01:30:17;40.00;35.00;22.67
55076;PMS7003;40971;44.702;11.030;2023-07-24T01:40:19;40.50;38.00;22.50
55076;PMS7003;40971;44.702;11.030;2023-07-24T01:50:23;30.33;30.33;22.00
55076;PMS7003;40971;44.702;11.030;2023-07-24T02:00:26;43.33;36.67;22.00
55076;PMS7003;40971;44.702;11.030;2023-07-24T02:10:30;36.88;34.88;24.00
55076;PMS7003;40971;44.702;11.030;2023-07-24T02:20:32;37.75;36.00;22.50
55076;PMS7003;40971;44.702;11.030;2023-07-24T02:30:37;45.00;39.67;25.67
55076;PMS7003;40971;44.702;11.030;2023-07-24T02:40:41;39.67;36.00;22.33
55076;PMS7003;40971;44.702;11.030;2023-07-24T02:50:47;39.33;37.11;23.00
55076;PMS7003;40971;44.702;11.030;2023-07-24T03:00:51;35.33;31.33;23.33
55076;PMS7003;40971;44.702;11.030;2023-07-24T03:10:53;36.67;35.00;24.00
55076;PMS7003;40971;44.702;11.030;2023-07-24T03:20:57;38.50;35.88;23.75
55076;PMS7003;40971;44.702;11.030;2023-07-24T03:31:01;29.33;29.33;19.33
55076;PMS7003;40971;44.702;11.030;2023-07-24T03:41:03;43.33;39.67;24.67
55076;PMS7003;40971;44.702;11.030;2023-07-24T03:51:05;40.00;38.00;24.67
55076;PMS7003;40971;44.702;11.030;2023-07-24T04:01:08;41.33;39.00;25.00
55076;PMS7003;40971;44.702;11.030;2023-07-24T04:11:13;38.33;35.89;24.00
55076;PMS7003;40971;44.702;11.030;2023-07-24T04:21:15;44.25;39.50;25.00
55076;PMS7003;40971;44.702;11.030;2023-07-24T04:31:18;41.67;37.67;24.00
55076;PMS7003;40971;44.702;11.030;2023-07-24T04:41:19;43.33;38.67;25.00
55076;PMS7003;40971;44.702;11.030;2023-07-24T04:51:21;45.00;40.33;26.00
55076;PMS7003;40971;44.702;11.030;2023-07-24T05:01:22;53.00;44.67;27.00
55076;PMS7003;40971;44.702;11.030;2023-07-24T05:11:26;53.38;45.25;27.38
55076;PMS7003;40971;44.702;11.030;2023-07-24T05:21:28;57.67;46.00;31.00
55076;PMS7003;40971;44.702;11.030;2023-07-24T05:31:35;57.75;46.25;30.63
55076;PMS7003;40971;44.702;11.030;2023-07-24T05:41:37;58.00;50.00;31.67
55076;PMS7003;40971;44.702;11.030;2023-07-24T05:51:39;62.33;51.00;34.67
55076;PMS7003;40971;44.702;11.030;2023-07-24T06:01:41;64.75;52.00;35.75
55076;PMS7003;40971;44.702;11.030;2023-07-24T06:11:43;56.75;47.75;32.00
55076;PMS7003;40971;44.702;11.030;2023-07-24T06:21:45;49.67;41.67;26.00
55076;PMS7003;40971;44.702;11.030;2023-07-24T06:31:47;49.00;42.00;27.75
55076;PMS7003;40971;44.702;11.030;2023-07-24T06:41:53;53.00;42.00;27.00
55076;PMS7003;40971;44.702;11.030;2023-07-24T06:51:56;52.25;42.75;28.00
55076;PMS7003;40971;44.702;11.030;2023-07-24T07:01:59;53.75;44.50;28.00
55076;PMS7003;40971;44.702;11.030;2023-07-24T07:12:01;54.75;44.25;29.50
55076;PMS7003;40971;44.702;11.030;2023-07-24T07:22:04;51.00;43.00;29.25
55076;PMS7003;40971;44.702;11.030;2023-07-24T07:32:08;51.25;44.00;28.75
55076;PMS7003;40971;44.702;11.030;2023-07-24T07:42:11;53.75;44.25;29.25
55076;PMS7003;40971;44.702;11.030;2023-07-24T07:52:13;55.75;46.00;30.00
55076;PMS7003;40971;44.702;11.030;2023-07-24T08:02:17;53.00;44.00;29.00
55076;PMS7003;40971;44.702;11.030;2023-07-24T08:12:21;53.13;45.25;30.13
55076;PMS7003;40971;44.702;11.030;2023-07-24T08:22:22;52.00;42.67;27.00
55076;PMS7003;40971;44.702;11.030;2023-07-24T08:32:23;45.50;39.00;24.00
55076;PMS7003;40971;44.702;11.030;2023-07-24T08:42:25;48.50;41.25;27.00
55076;PMS7003;40971;44.702;11.030;2023-07-24T08:52:28;48.50;40.00;28.00
55076;PMS7003;40971;44.702;11.030;2023-07-24T09:02:34;50.00;42.00;27.50
55076;PMS7003;40971;44.702;11.030;2023-07-24T09:12:36;54.00;45.00;30.00
55076;PMS7003;40971;44.702;11.030;2023-07-24T09:22:38;47.00;40.00;25.50
55076;PMS7003;40971;44.702;11.030;2023-07-24T09:32:53;46.40;39.60;25.20
55076;PMS7003;40971;44.702;11.030;2023-07-24T09:42:56;41.00;36.33;23.33
55076;PMS7003;40971;44.702;11.030;2023-07-24T09:52:58;40.25;34.75;22.25
55076;PMS7003;40971;44.702;11.030;2023-07-24T10:03:01;39.00;35.00;23.00
55076;PMS7003;40971;44.702;11.030;2023-07-24T10:13:03;34.50;32.00;22.50
55076;PMS7003;40971;44.702;11.030;2023-07-24T10:23:10;33.40;31.40;21.20
55076;PMS7003;40971;44.702;11.030;2023-07-24T10:33:18;30.67;27.67;20.17
55076;PMS7003;40971;44.702;11.030;2023-07-24T10:43:24;33.00;31.00;21.25
55076;PMS7003;40971;44.702;11.030;2023-07-24T10:53:25;27.00;26.00;17.00
55076;PMS7003;40971;44.702;11.030;2023-07-24T11:03:29;27.40;26.20;18.60
55076;PMS7003;40971;44.702;11.030;2023-07-24T11:13:30;26.50;26.25;17.75
55076;PMS7003;40971;44.702;11.030;2023-07-24T11:23:33;30.33;28.33;20.00
55076;PMS7003;40971;44.702;11.030;2023-07-24T11:33:34;29.00;28.25;19.00
55076;PMS7003;40971;44.702;11.030;2023-07-24T11:43:44;30.20;28.20;20.00
55076;PMS7003;40971;44.702;11.030;2023-07-24T11:53:48;31.80;30.00;20.00
55076;PMS7003;40971;44.702;11.030;2023-07-24T12:03:49;27.50;25.50;19.75
55076;PMS7003;40971;44.702;11.030;2023-07-24T12:13:51;26.80;25.80;17.80
55076;PMS7003;40971;44.702;11.030;2023-07-24T12:23:54;25.33;25.33;17.67
55076;PMS7003;40971;44.702;11.030;2023-07-24T12:33:57;31.20;30.20;21.00
55076;PMS7003;40971;44.702;11.030;2023-07-24T12:43:58;25.75;25.75;17.25
55076;PMS7003;40971;44.702;11.030;2023-07-24T12:53:59;27.00;25.00;19.00
55076;PMS7003;40971;44.702;11.030;2023-07-24T13:04:04;30.13;29.13;20.00
55076;PMS7003;40971;44.702;11.030;2023-07-24T13:14:06;29.80;29.60;20.00
55076;PMS7003;40971;44.702;11.030;2023-07-24T13:24:09;27.00;26.00;18.50
55076;PMS7003;40971;44.702;11.030;2023-07-24T13:34:12;30.00;29.40;20.00
55076;PMS7003;40971;44.702;11.030;2023-07-24T13:44:13;29.25;29.00;20.25
55076;PMS7003;40971;44.702;11.030;2023-07-24T13:54:14;28.50;28.25;20.00
55076;PMS7003;40971;44.702;11.030;2023-07-24T14:04:17;26.60;23.00;16.40
55076;PMS7003;40971;44.702;11.030;2023-07-24T14:14:19;23.00;23.00;16.25
55076;PMS7003;40971;44.702;11.030;2023-07-24T14:24:22;20.67;20.00;15.33
55076;PMS7003;40971;44.702;11.030;2023-07-24T14:34:27;21.00;20.22;14.89
55076;PMS7003;40971;44.702;11.030;2023-07-24T14:44:29;17.33;16.67;12.33
55076;PMS7003;40971;44.702;11.030;2023-07-24T14:54:31;14.00;13.67;11.00
55076;PMS7003;40971;44.702;11.030;2023-07-24T15:04:32;19.33;17.67;12.00
55076;PMS7003;40971;44.702;11.030;2023-07-24T15:14:34;12.67;12.67;10.00
55076;PMS7003;40971;44.702;11.030;2023-07-24T15:24:36;19.33;17.33;13.00
55076;PMS7003;40971;44.702;11.030;2023-07-24T15:34:40;20.67;19.89;13.67
55076;PMS7003;40971;44.702;11.030;2023-07-24T15:44:42;17.33;17.33;13.00
55076;PMS7003;40971;44.702;11.030;2023-07-24T15:54:44;17.00;16.67;13.67
55076;PMS7003;40971;44.702;11.030;2023-07-24T16:04:45;22.00;20.00;16.33
55076;PMS7003;40971;44.702;11.030;2023-07-24T16:14:47;20.25;20.25;15.50
55076;PMS7003;40971;44.702;11.030;2023-07-24T16:24:50;23.25;21.25;17.00
55076;PMS7003;40971;44.702;11.030;2023-07-24T16:34:53;26.75;23.25;15.00
55076;PMS7003;40971;44.702;11.030;2023-07-24T16:44:55;20.00;18.67;14.00
55076;PMS7003;40971;44.702;11.030;2023-07-24T16:54:56;18.40;16.80;12.20
55076;PMS7003;40971;44.702;11.030;2023-07-24T17:04:58;23.33;21.33;13.33
55076;PMS7003;40971;44.702;11.030;2023-07-24T17:15:02;20.00;19.75;12.25
55076;PMS7003;40971;44.702;11.030;2023-07-24T17:25:06;21.00;19.50;13.63
55076;PMS7003;40971;44.702;11.030;2023-07-24T17:35:09;19.33;17.33;13.67
55076;PMS7003;40971;44.702;11.030;2023-07-24T17:45:11;23.00;20.33;16.33
55076;PMS7003;40971;44.702;11.030;2023-07-24T17:55:15;22.50;20.50;14.25
55076;PMS7003;40971;44.702;11.030;2023-07-24T18:05:17;24.00;21.33;16.00
55076;PMS7003;40971;44.702;11.030;2023-07-24T18:15:18;17.67;17.67;12.00
55076;PMS7003;40971;44.702;11.030;2023-07-24T18:25:26;18.50;17.38;12.13
55076;PMS7003;40971;44.702;11.030;2023-07-24T18:35:28;21.00;20.00;16.00
55076;PMS7003;40971;44.702;11.030;2023-07-24T18:45:31;19.33;18.33;14.00
55076;PMS7003;40971;44.702;11.030;2023-07-24T18:55:35;20.13;19.88;13.63
55076;PMS7003;40971;44.702;11.030;2023-07-24T19:05:40;23.00;22.89;14.56
55076;PMS7003;40971;44.702;11.030;2023-07-24T19:15:41;21.33;19.33;13.67
55076;PMS7003;40971;44.702;11.030;2023-07-24T19:25:42;24.33;22.67;16.00
55076;PMS7003;40971;44.702;11.030;2023-07-24T19:35:44;23.33;23.33;17.33
55076;PMS7003;40971;44.702;11.030;2023-07-24T19:45:46;27.50;26.00;19.00
55076;PMS7003;40971;44.702;11.030;2023-07-24T19:55:49;29.75;27.50;19.50
55076;PMS7003;40971;44.702;11.030;2023-07-24T20:15:58;31.00;30.00;20.33
55076;PMS7003;40971;44.702;11.030;2023-07-24T20:25:59;33.50;32.00;21.00
55076;PMS7003;40971;44.702;11.030;2023-07-24T20:36:05;35.33;32.67;21.00
55076;PMS7003;40971;44.702;11.030;2023-07-24T20:46:09;39.33;34.67;23.33
55076;PMS7003;40971;44.702;11.030;2023-07-24T20:56:14;37.50;34.00;22.83
55076;PMS7003;40971;44.702;11.030;2023-07-24T21:06:15;43.00;35.00;23.00
55076;PMS7003;40971;44.702;11.030;2023-07-24T21:16:17;34.00;33.25;21.25
55076;PMS7003;40971;44.702;11.030;2023-07-24T21:26:18;33.00;31.50;21.50
55076;PMS7003;40971;44.702;11.030;2023-07-24T21:36:19;34.25;32.00;23.25
55076;PMS7003;40971;44.702;11.030;2023-07-24T21:46:20;32.00;31.00;20.00
55076;PMS7003;40971;44.702;11.030;2023-07-24T21:56:25;30.75;30.75;21.00
55076;PMS7003;40971;44.702;11.030;2023-07-24T22:06:28;25.33;23.67;17.00
55076;PMS7003;40971;44.702;11.030;2023-07-24T22:16:29;28.33;27.33;21.00
55076;PMS7003;40971;44.702;11.030;2023-07-24T22:26:33;31.50;29.75;19.75
55076;PMS7003;40971;44.702;11.030;2023-07-24T22:36:34;29.67;28.33;20.67
55076;PMS7003;40971;44.702;11.030;2023-07-24T22:46:37;28.33;27.33;18.00
55076;PMS7003;40971;44.702;11.030;2023-07-24T22:56:39;31.33;30.00;21.00
55076;PMS7003;40971;44.702;11.030;2023-07-24T23:06:43;30.33;29.33;20.00
55076;PMS7003;40971;44.702;11.030;2023-07-24T23:16:45;28.00;27.75;21.00
55076;PMS7003;40971;44.702;11.030;2023-07-24T23:26:48;25.67;25.67;19.67
55076;PMS7003;40971;44.702;11.030;2023-07-24T23:36:53;28.78;27.78;18.44
55076;PMS7003;40971;44.702;11.030;2023-07-24T23:46:55;29.00;29.00;21.50
55076;PMS7003;40971;44.702;11.030;2023-07-24T23:56:57;30.00;26.67;17.00
